North Woods Beach, Wisconsin
Current Conditions -  °F | °C
As of 4:53 PM on Monday 24 Nov 2014 (Local Time) from KHYR Reporting Station
Overcast Overcast  
Wind Chill: 12°   Ceiling: 1400
Heat Index: 22°   Visibility: 10mi
Dew Point: 17°   Wind: 9mph
Humidity: 82%   Direction: 340°NNW
Pressure: 29.53"   Gusts: 24mph
Location:  46.0387°N, 91.2627°W
Report Text: KHYR 242253Z AUTO 34008G21KT 10SM OVC014 M06/M08 A2953 RMK AO2 SLP015 T10561083
Loading
Personal Weather Stations






























Interactive Weather Map New forecast layout! Learn more

10-Day Weather Forecast

Advertisements
Track Severe Weather on mobile